createdAt,value
2023-03-10T00:07:35.153Z,69.15
2023-03-10T00:22:37.396Z,71.82
2023-03-10T00:37:39.410Z,73.50
2023-03-10T00:52:41.334Z,70.60
2023-03-10T01:07:43.311Z,74.95
2023-03-10T01:22:45.557Z,64.15
2023-03-10T01:37:47.469Z,66.88
2023-03-10T01:52:56.693Z,60.60
2023-03-10T02:07:59.801Z,49.92
2023-03-10T02:23:01.928Z,27.33
2023-03-10T02:38:04.780Z,15.05
2023-03-10T02:53:26.153Z,8.48
2023-03-10T03:08:28.596Z,7.35
2023-03-10T03:23:30.612Z,7.88
2023-03-10T03:38:32.869Z,7.03
2023-03-10T03:53:34.976Z,5.30
2023-03-10T04:08:37.137Z,4.10
2023-03-10T04:23:42.224Z,9.25
2023-03-10T04:38:44.674Z,5.88
2023-03-10T04:53:46.659Z,6.15
2023-03-10T05:08:48.758Z,4.72
2023-03-10T05:23:50.849Z,6.50
2023-03-10T05:38:52.841Z,5.32
2023-03-10T05:53:54.969Z,5.40
2023-03-10T06:08:57.701Z,5.60
2023-03-10T06:24:00.605Z,5.50
2023-03-10T06:39:02.554Z,10.90
2023-03-10T06:54:05.344Z,8.15
2023-03-10T07:09:07.321Z,10.45
2023-03-10T07:24:09.779Z,6.72
2023-03-10T07:39:11.909Z,6.70
2023-03-10T07:54:13.848Z,4.82
2023-03-10T08:09:15.792Z,5.05
2023-03-10T08:24:17.998Z,4.60
2023-03-10T08:39:19.998Z,5.10
2023-03-10T08:54:23.093Z,7.80
2023-03-10T09:09:25.051Z,5.90
2023-03-10T09:24:27.082Z,5.82
2023-03-10T09:39:29.140Z,2.70
2023-03-10T09:54:50.640Z,2.42
2023-03-10T10:09:59.297Z,2.78
2023-03-10T10:25:13.375Z,3.60
2023-03-10T10:40:27.925Z,3.00
2023-03-10T10:55:34.915Z,3.42
2023-03-10T11:10:38.289Z,2.80
2023-03-10T11:25:53.288Z,2.10
2023-03-10T11:40:58.964Z,4.95
2023-03-10T11:56:02.958Z,2.40
2023-03-10T12:11:12.324Z,3.13
2023-03-10T12:26:14.995Z,3.60
2023-03-10T12:41:44.999Z,3.25
2023-03-10T12:56:52.673Z,3.00
2023-03-10T13:12:24.534Z,3.63
2023-03-10T13:27:32.110Z,3.55
2023-03-10T13:42:43.436Z,2.70
2023-03-10T13:57:48.438Z,4.80
2023-03-10T14:12:53.250Z,6.28
2023-03-10T14:28:06.922Z,4.88
2023-03-10T14:43:15.868Z,3.78
2023-03-10T14:58:25.481Z,3.45
2023-03-10T15:13:27.579Z,2.80
2023-03-10T15:28:29.774Z,5.80
2023-03-10T15:43:31.820Z,6.45
2023-03-10T15:58:34.376Z,4.75
2023-03-10T16:13:36.499Z,6.07
2023-03-10T16:28:41.257Z,6.05
2023-03-10T16:43:43.532Z,5.53
2023-03-10T16:58:45.601Z,5.25
2023-03-10T17:13:49.777Z,4.38
2023-03-10T17:28:52.458Z,6.85
2023-03-10T17:43:55.082Z,4.55
2023-03-10T17:58:58.517Z,3.53
2023-03-10T18:14:03.373Z,3.50
2023-03-10T18:29:05.689Z,5.13
2023-03-10T18:44:07.703Z,5.10
2023-03-10T18:59:10.322Z,7.18
2023-03-10T19:14:13.048Z,8.95
2023-03-10T19:29:15.086Z,8.75
2023-03-10T19:44:17.339Z,6.35
2023-03-10T19:59:20.082Z,5.95
2023-03-10T20:14:22.260Z,5.57
2023-03-10T20:29:24.457Z,7.03
2023-03-10T20:44:26.526Z,6.32
2023-03-10T20:59:28.581Z,8.75
2023-03-10T21:14:30.676Z,6.93
2023-03-10T21:29:34.743Z,7.20
2023-03-10T21:44:36.934Z,3.42
2023-03-10T21:59:39.272Z,3.22
2023-03-10T22:14:42.339Z,5.97
2023-03-10T22:29:44.528Z,3.58
2023-03-10T22:44:46.433Z,5.25
2023-03-10T22:59:48.387Z,4.35
2023-03-10T23:14:50.319Z,4.75
2023-03-10T23:29:52.381Z,3.38
2023-03-10T23:44:54.359Z,2.50
2023-03-10T23:59:56.484Z,3.67
